createdAt,value
2018-11-02T00:00:02.488Z,1009.01
2018-11-02T00:01:02.412Z,1009.05
2018-11-02T00:02:02.384Z,1009.04
2018-11-02T00:03:02.353Z,1009.03
2018-11-02T00:04:02.322Z,1009.10
2018-11-02T00:05:02.293Z,1009.10
2018-11-02T00:06:02.277Z,1009.11
2018-11-02T00:07:02.236Z,1009.17
2018-11-02T00:08:02.217Z,1009.21
2018-11-02T00:09:02.177Z,1009.24
2018-11-02T00:10:02.179Z,1009.21
2018-11-02T00:11:02.118Z,1009.15
2018-11-02T00:12:02.091Z,1009.23
2018-11-02T00:13:02.073Z,1009.22
2018-11-02T00:14:02.029Z,1009.21
2018-11-02T00:15:02.002Z,1009.25
2018-11-02T00:16:01.972Z,1009.24
2018-11-02T00:17:01.950Z,1009.16
2018-11-02T00:18:01.916Z,1009.27
2018-11-02T00:19:01.957Z,1009.29
2018-11-02T00:20:01.856Z,1009.35
2018-11-02T00:21:01.824Z,1009.27
2018-11-02T00:22:01.796Z,1009.28
2018-11-02T00:23:01.772Z,1009.25
2018-11-02T00:24:01.740Z,1009.34
2018-11-02T00:25:01.707Z,1009.30
2018-11-02T00:26:01.676Z,1009.32
2018-11-02T00:27:01.648Z,1009.31
2018-11-02T00:28:01.618Z,1009.31
2018-11-02T00:29:01.589Z,1009.31
2018-11-02T00:30:01.559Z,1009.34
2018-11-02T00:31:01.532Z,1009.31
2018-11-02T00:32:01.538Z,1009.34
2018-11-02T00:33:01.474Z,1009.38
2018-11-02T00:34:01.444Z,1009.32
2018-11-02T00:35:01.416Z,1009.34
2018-11-02T00:36:01.382Z,1009.32
2018-11-02T00:37:01.355Z,1009.30
2018-11-02T00:38:01.322Z,1009.32
2018-11-02T00:39:01.294Z,1009.33
2018-11-02T00:40:01.469Z,1009.33
2018-11-02T00:41:01.238Z,1009.34
2018-11-02T00:42:01.207Z,1009.35
2018-11-02T00:43:01.178Z,1009.37
2018-11-02T00:44:01.183Z,1009.38
2018-11-02T00:45:01.118Z,1009.36
2018-11-02T00:46:01.089Z,1009.42
2018-11-02T00:47:01.059Z,1009.43
2018-11-02T00:48:01.432Z,1009.48
2018-11-02T00:49:01.005Z,1009.45
2018-11-02T00:50:00.974Z,1009.44
2018-11-02T00:51:00.941Z,1009.46
2018-11-02T00:52:00.910Z,1009.42
2018-11-02T00:53:00.884Z,1009.47
2018-11-02T00:54:00.850Z,1009.50
2018-11-02T00:55:00.826Z,1009.44
2018-11-02T00:56:00.795Z,1009.50
2018-11-02T00:57:00.969Z,1009.52
2018-11-02T00:58:00.734Z,1009.48
2018-11-02T00:59:00.704Z,1009.44
2018-11-02T01:00:00.679Z,1009.45
2018-11-02T01:01:00.645Z,1009.48
2018-11-02T01:02:00.615Z,1009.46
2018-11-02T01:03:00.590Z,1009.48
2018-11-02T01:04:00.566Z,1009.45
2018-11-02T01:05:00.525Z,1009.41
2018-11-02T01:06:00.494Z,1009.44
2018-11-02T01:07:00.465Z,1009.41
2018-11-02T01:08:00.446Z,1009.43
2018-11-02T01:09:00.409Z,1009.45
2018-11-02T01:10:00.383Z,1009.42
2018-11-02T01:11:00.349Z,1009.49
2018-11-02T01:12:00.317Z,1009.42
2018-11-02T01:13:00.291Z,1009.48
2018-11-02T01:14:00.261Z,1009.45
2018-11-02T01:15:00.233Z,1009.44
2018-11-02T01:16:00.204Z,1009.40
2018-11-02T01:17:00.168Z,1009.43
2018-11-02T01:18:00.150Z,1009.38
2018-11-02T01:19:00.109Z,1009.42
2018-11-02T01:20:00.093Z,1009.42
2018-11-02T01:21:00.052Z,1009.46
2018-11-02T01:22:00.031Z,1009.39
2018-11-02T01:22:59.992Z,1009.45
2018-11-02T01:23:59.961Z,1009.40
2018-11-02T01:24:59.932Z,1009.41
2018-11-02T01:25:59.904Z,1009.45
2018-11-02T01:26:59.872Z,1009.43
2018-11-02T01:27:59.845Z,1009.43
2018-11-02T01:28:59.820Z,1009.42
2018-11-02T01:29:59.788Z,1009.44
2018-11-02T01:30:59.758Z,1009.36
2018-11-02T01:31:59.727Z,1009.46
2018-11-02T01:32:59.698Z,1009.41
2018-11-02T01:33:59.669Z,1009.41
2018-11-02T01:34:59.638Z,1009.43
2018-11-02T01:35:59.607Z,1009.40
2018-11-02T01:36:59.578Z,1009.41
2018-11-02T01:37:59.549Z,1009.40
2018-11-02T01:38:59.532Z,1009.31
2018-11-02T01:39:59.490Z,1009.31
2018-11-02T01:40:59.462Z,1009.40
2018-11-02T01:41:59.434Z,1009.35
2018-11-02T01:42:59.402Z,1009.36
2018-11-02T01:43:59.379Z,1009.34
2018-11-02T01:44:59.341Z,1009.30
2018-11-02T01:45:59.313Z,1009.28
2018-11-02T01:46:59.283Z,1009.35
2018-11-02T01:47:59.253Z,1009.34
2018-11-02T01:48:59.228Z,1009.38
2018-11-02T01:49:59.228Z,1009.42
2018-11-02T01:50:59.164Z,1009.48
2018-11-02T01:51:59.137Z,1009.42
2018-11-02T01:52:59.125Z,1009.42
2018-11-02T01:53:59.080Z,1009.46
2018-11-02T01:54:59.062Z,1009.52
2018-11-02T01:55:59.023Z,1009.52
2018-11-02T01:56:58.989Z,1009.56
2018-11-02T01:57:58.958Z,1009.53
2018-11-02T01:58:58.930Z,1009.59
2018-11-02T01:59:58.907Z,1009.59
2018-11-02T02:00:58.876Z,1009.63
2018-11-02T02:01:58.849Z,1009.53
2018-11-02T02:02:58.817Z,1009.57
2018-11-02T02:03:58.786Z,1009.60
2018-11-02T02:04:58.760Z,1009.64
2018-11-02T02:05:58.731Z,1009.61
2018-11-02T02:06:58.698Z,1009.60
2018-11-02T02:07:58.666Z,1009.59
2018-11-02T02:08:58.642Z,1009.52
2018-11-02T02:09:58.608Z,1009.61
2018-11-02T02:10:58.579Z,1009.59
2018-11-02T02:11:58.552Z,1009.63
2018-11-02T02:12:58.544Z,1009.68
2018-11-02T02:13:58.492Z,1009.68
2018-11-02T02:14:58.464Z,1009.65
2018-11-02T02:15:58.432Z,1009.66
2018-11-02T02:16:58.403Z,1009.61
2018-11-02T02:17:58.376Z,1009.64
2018-11-02T02:18:58.344Z,1009.66
2018-11-02T02:19:58.315Z,1009.58
2018-11-02T02:20:58.286Z,1009.61
2018-11-02T02:21:58.259Z,1009.56
2018-11-02T02:22:58.227Z,1009.63
2018-11-02T02:23:58.205Z,1009.61
2018-11-02T02:24:58.171Z,1009.59
2018-11-02T02:25:58.141Z,1009.56
2018-11-02T02:26:58.162Z,1009.60
2018-11-02T02:27:58.080Z,1009.64
2018-11-02T02:28:58.051Z,1009.64
2018-11-02T02:29:58.022Z,1009.65
2018-11-02T02:30:57.996Z,1009.68
2018-11-02T02:31:57.965Z,1009.75
2018-11-02T02:32:57.940Z,1009.83
2018-11-02T02:33:57.907Z,1009.79
2018-11-02T02:34:57.876Z,1009.85
2018-11-02T02:35:57.848Z,1009.91
2018-11-02T02:36:57.818Z,1009.93
2018-11-02T02:37:57.787Z,1009.88
2018-11-02T02:38:57.760Z,1009.89
2018-11-02T02:39:57.726Z,1009.81
2018-11-02T02:40:57.699Z,1009.85
2018-11-02T02:41:57.669Z,1009.78
2018-11-02T02:42:57.640Z,1009.85
2018-11-02T02:43:57.621Z,1009.86
2018-11-02T02:44:57.585Z,1009.86
2018-11-02T02:45:57.555Z,1009.82
2018-11-02T02:46:57.525Z,1009.91
2018-11-02T02:47:57.497Z,1009.95
2018-11-02T02:48:57.465Z,1009.85
2018-11-02T02:49:57.435Z,1009.90
2018-11-02T02:50:57.406Z,1009.91
2018-11-02T02:51:57.379Z,1009.91
2018-11-02T02:52:57.350Z,1009.97
2018-11-02T02:53:57.324Z,1009.90
2018-11-02T02:54:57.290Z,1009.97
2018-11-02T02:55:57.261Z,1009.96
2018-11-02T02:56:57.231Z,1010.00
2018-11-02T02:57:57.201Z,1010.00
2018-11-02T02:58:57.173Z,1010.04
2018-11-02T02:59:57.145Z,1010.03
2018-11-02T03:00:57.116Z,1010.00
2018-11-02T03:01:57.088Z,1010.02
2018-11-02T03:02:57.060Z,1010.02
2018-11-02T03:03:57.029Z,1009.99
2018-11-02T03:04:56.997Z,1010.00
2018-11-02T03:05:56.967Z,1009.96
2018-11-02T03:06:56.938Z,1010.07
2018-11-02T03:07:56.959Z,1010.09
2018-11-02T03:08:56.880Z,1010.09
2018-11-02T03:09:56.851Z,1009.98
2018-11-02T03:10:57.024Z,1010.04
2018-11-02T03:11:56.809Z,1009.97
2018-11-02T03:12:56.765Z,1010.01
2018-11-02T03:13:56.734Z,1009.99
2018-11-02T03:14:56.708Z,1010.02
2018-11-02T03:15:56.675Z,1009.96
2018-11-02T03:16:56.649Z,1010.05
2018-11-02T03:17:56.620Z,1010.06
2018-11-02T03:18:56.590Z,1010.04
2018-11-02T03:19:56.570Z,1010.08
2018-11-02T03:20:56.537Z,1010.04
2018-11-02T03:21:56.502Z,1010.05
2018-11-02T03:22:56.477Z,1010.13
2018-11-02T03:23:56.444Z,1009.89
2018-11-02T03:24:56.417Z,1010.15
2018-11-02T03:25:56.393Z,1010.15
2018-11-02T03:26:56.355Z,1010.18
2018-11-02T03:27:56.326Z,1010.18
2018-11-02T03:28:56.297Z,1010.14
2018-11-02T03:29:56.269Z,1010.07
2018-11-02T03:30:56.239Z,1010.22
2018-11-02T03:31:56.216Z,1010.10
2018-11-02T03:32:56.184Z,1010.03
2018-11-02T03:33:56.153Z,1010.08
2018-11-02T03:34:56.124Z,1010.13
2018-11-02T03:35:56.097Z,1010.18
2018-11-02T03:36:56.068Z,1010.13
2018-11-02T03:37:56.035Z,1010.09
2018-11-02T03:38:56.006Z,1010.15
2018-11-02T03:39:55.994Z,1010.07
2018-11-02T03:40:55.950Z,1010.14
2018-11-02T03:41:55.919Z,1010.11
2018-11-02T03:42:55.891Z,1010.04
2018-11-02T03:43:55.868Z,1010.13
2018-11-02T03:44:55.836Z,1009.99
2018-11-02T03:45:55.807Z,1010.00
2018-11-02T03:46:55.777Z,1009.92
2018-11-02T03:47:55.747Z,1009.79
2018-11-02T03:48:55.720Z,1009.96
2018-11-02T03:49:55.687Z,1009.98
2018-11-02T03:50:55.659Z,1009.85
2018-11-02T03:51:55.641Z,1009.82
2018-11-02T03:52:55.605Z,1009.94
2018-11-02T03:53:55.574Z,1009.81
2018-11-02T03:54:55.545Z,1009.66
2018-11-02T03:55:55.514Z,1009.83
2018-11-02T03:56:55.629Z,1009.94
2018-11-02T03:57:55.459Z,1009.93
2018-11-02T03:58:55.428Z,1009.89
2018-11-02T03:59:55.397Z,1009.85
2018-11-02T04:00:55.370Z,1009.90
2018-11-02T04:01:55.342Z,1009.89
2018-11-02T04:02:55.311Z,1009.94
2018-11-02T04:03:55.307Z,1010.08
2018-11-02T04:04:55.260Z,1009.93
2018-11-02T04:05:55.228Z,1009.98
2018-11-02T04:06:55.196Z,1010.00
2018-11-02T04:07:55.166Z,1009.91
2018-11-02T04:08:55.140Z,1009.79
2018-11-02T04:09:55.109Z,1010.02
2018-11-02T04:10:55.090Z,1009.94
2018-11-02T04:11:55.068Z,1009.89
2018-11-02T04:12:55.022Z,1010.05
2018-11-02T04:13:54.992Z,1009.97
2018-11-02T04:14:54.964Z,1010.06
2018-11-02T04:15:54.957Z,1010.04
2018-11-02T04:16:54.908Z,1010.13
2018-11-02T04:17:54.879Z,1010.12
2018-11-02T04:18:54.851Z,1010.25
2018-11-02T04:19:54.820Z,1010.19
2018-11-02T04:20:54.792Z,1010.07
2018-11-02T04:21:54.762Z,1010.19
2018-11-02T04:22:54.736Z,1010.31
2018-11-02T04:23:54.757Z,1010.43
2018-11-02T04:24:54.680Z,1010.34
2018-11-02T04:25:54.649Z,1010.41
2018-11-02T04:26:54.621Z,1010.39
2018-11-02T04:27:54.591Z,1010.41
2018-11-02T04:28:54.563Z,1010.41
2018-11-02T04:29:54.538Z,1010.46
2018-11-02T04:30:54.566Z,1010.48
2018-11-02T04:31:54.482Z,1010.48
2018-11-02T04:32:54.446Z,1010.52
2018-11-02T04:33:54.417Z,1010.51
2018-11-02T04:34:54.388Z,1010.55
2018-11-02T04:35:54.360Z,1010.67
2018-11-02T04:36:54.337Z,1010.71
2018-11-02T04:37:54.305Z,1010.73
2018-11-02T04:38:54.281Z,1010.71
2018-11-02T04:39:54.245Z,1010.73
2018-11-02T04:40:54.216Z,1010.77
2018-11-02T04:41:54.188Z,1010.80
2018-11-02T04:42:54.158Z,1010.82
2018-11-02T04:43:54.131Z,1010.79
2018-11-02T04:44:54.102Z,1010.78
2018-11-02T04:45:54.074Z,1010.78
2018-11-02T04:46:54.044Z,1010.78
2018-11-02T04:47:54.018Z,1010.82
2018-11-02T04:48:53.989Z,1010.83
2018-11-02T04:49:53.960Z,1010.78
2018-11-02T04:50:54.039Z,1010.78
2018-11-02T04:51:53.906Z,1010.84
2018-11-02T04:52:53.877Z,1010.83
2018-11-02T04:53:53.842Z,1010.87
2018-11-02T04:54:53.817Z,1010.88
2018-11-02T04:55:53.789Z,1010.86
2018-11-02T04:56:53.759Z,1010.81
2018-11-02T04:57:53.728Z,1010.85
2018-11-02T04:58:53.702Z,1010.88
2018-11-02T04:59:53.672Z,1010.84
2018-11-02T05:00:53.642Z,1010.91
2018-11-02T05:01:53.613Z,1010.98
2018-11-02T05:02:53.584Z,1010.99
2018-11-02T05:03:53.557Z,1010.97
2018-11-02T05:04:53.579Z,1010.96
2018-11-02T05:05:53.499Z,1010.92
2018-11-02T05:06:53.471Z,1010.92
2018-11-02T05:07:53.440Z,1010.98
2018-11-02T05:08:53.411Z,1010.99
2018-11-02T05:09:53.387Z,1010.94
2018-11-02T05:10:53.353Z,1010.88
2018-11-02T05:11:53.327Z,1010.83
2018-11-02T05:12:53.302Z,1010.85
2018-11-02T05:13:53.269Z,1010.88
2018-11-02T05:14:53.239Z,1010.91
2018-11-02T05:15:53.213Z,1010.98
2018-11-02T05:16:53.188Z,1010.93
2018-11-02T05:17:53.166Z,1011.02
2018-11-02T05:18:53.128Z,1011.06
2018-11-02T05:19:53.098Z,1011.15
2018-11-02T05:20:53.065Z,1011.17
2018-11-02T05:21:53.035Z,1011.21
2018-11-02T05:22:53.015Z,1011.14
2018-11-02T05:23:52.983Z,1011.23
2018-11-02T05:24:52.951Z,1011.26
2018-11-02T05:25:52.921Z,1011.34
2018-11-02T05:26:52.894Z,1011.39
2018-11-02T05:27:52.868Z,1011.36
2018-11-02T05:28:52.834Z,1011.46
2018-11-02T05:29:52.845Z,1011.37
2018-11-02T05:30:52.777Z,1011.52
2018-11-02T05:31:52.747Z,1011.55
2018-11-02T05:32:52.719Z,1011.52
2018-11-02T05:33:52.693Z,1011.45
2018-11-02T05:34:52.660Z,1011.48
2018-11-02T05:35:52.633Z,1011.63
2018-11-02T05:36:52.609Z,1011.63
2018-11-02T05:37:52.575Z,1011.62
2018-11-02T05:38:52.595Z,1011.68
2018-11-02T05:39:52.517Z,1011.71
2018-11-02T05:40:52.487Z,1011.70
2018-11-02T05:41:52.458Z,1011.74
2018-11-02T05:42:52.429Z,1011.73
2018-11-02T05:43:52.401Z,1011.77
2018-11-02T05:44:52.375Z,1011.73
2018-11-02T05:45:52.345Z,1011.70
2018-11-02T05:46:52.316Z,1011.76
2018-11-02T05:47:52.288Z,1011.70
2018-11-02T05:48:52.257Z,1011.72
2018-11-02T05:49:52.230Z,1011.73
2018-11-02T05:50:52.201Z,1011.65
2018-11-02T05:51:52.171Z,1011.69
2018-11-02T05:52:52.147Z,1011.60
2018-11-02T05:53:52.112Z,1011.68
2018-11-02T05:54:52.082Z,1011.62
2018-11-02T05:55:52.059Z,1011.71
2018-11-02T05:56:52.030Z,1011.70
2018-11-02T05:57:51.999Z,1011.75
2018-11-02T05:58:51.969Z,1011.76
2018-11-02T05:59:51.938Z,1011.78
2018-11-02T06:00:51.910Z,1011.91
2018-11-02T06:01:51.881Z,1011.92
2018-11-02T06:02:51.852Z,1011.94
2018-11-02T06:03:51.823Z,1011.98
2018-11-02T06:04:51.795Z,1011.88
2018-11-02T06:05:51.765Z,1011.97
2018-11-02T06:06:51.735Z,1011.94
2018-11-02T06:07:51.782Z,1011.98
2018-11-02T06:08:51.687Z,1011.92
2018-11-02T06:09:51.669Z,1011.99
2018-11-02T06:10:51.635Z,1012.05
2018-11-02T06:11:51.594Z,1012.02
2018-11-02T06:12:51.563Z,1012.09
2018-11-02T06:13:51.533Z,1012.05
2018-11-02T06:14:51.506Z,1012.10
2018-11-02T06:15:51.482Z,1012.09
2018-11-02T06:16:51.553Z,1012.16
2018-11-02T06:17:51.420Z,1012.15
2018-11-02T06:18:51.395Z,1012.21
2018-11-02T06:19:51.362Z,1012.22
2018-11-02T06:20:51.337Z,1012.26
2018-11-02T06:21:51.309Z,1012.31
2018-11-02T06:22:51.279Z,1012.28
2018-11-02T06:23:51.244Z,1012.36
2018-11-02T06:24:51.217Z,1012.39
2018-11-02T06:25:51.186Z,1012.32
2018-11-02T06:26:51.159Z,1012.32
2018-11-02T06:27:51.138Z,1012.30
2018-11-02T06:28:51.165Z,1012.34
2018-11-02T06:29:51.073Z,1012.35
2018-11-02T06:30:51.048Z,1012.31
2018-11-02T06:31:51.014Z,1012.33
2018-11-02T06:32:51.113Z,1012.35
2018-11-02T06:33:50.956Z,1012.39
2018-11-02T06:34:50.931Z,1012.38
2018-11-02T06:35:50.899Z,1012.38
2018-11-02T06:36:50.870Z,1012.46
2018-11-02T06:37:50.853Z,1012.39
2018-11-02T06:38:50.852Z,1012.49
2018-11-02T06:39:50.786Z,1012.43
2018-11-02T06:40:50.756Z,1012.50
2018-11-02T06:41:50.727Z,1012.47
2018-11-02T06:42:50.701Z,1012.46
2018-11-02T06:43:50.667Z,1012.44
2018-11-02T06:44:50.655Z,1012.47
2018-11-02T06:45:50.611Z,1012.44
2018-11-02T06:46:50.583Z,1012.57
2018-11-02T06:47:50.555Z,1012.58
2018-11-02T06:48:50.527Z,1012.64
2018-11-02T06:49:50.500Z,1012.66
2018-11-02T06:50:50.515Z,1012.73
2018-11-02T06:51:50.439Z,1012.72
2018-11-02T06:52:50.411Z,1012.65
2018-11-02T06:53:50.382Z,1012.68
2018-11-02T06:54:50.353Z,1012.74
2018-11-02T06:55:50.322Z,1012.74
2018-11-02T06:56:50.296Z,1012.76
2018-11-02T06:57:50.266Z,1012.79
2018-11-02T06:58:50.238Z,1012.81
2018-11-02T06:59:50.517Z,1012.81
2018-11-02T07:00:50.183Z,1012.84
2018-11-02T07:01:50.153Z,1012.76
2018-11-02T07:02:50.130Z,1012.78
2018-11-02T07:03:50.094Z,1012.84
2018-11-02T07:04:50.065Z,1012.83
2018-11-02T07:05:50.036Z,1012.85
2018-11-02T07:06:50.007Z,1012.85
2018-11-02T07:07:50.066Z,1012.91
2018-11-02T07:08:49.951Z,1012.89
2018-11-02T07:09:49.922Z,1012.93
2018-11-02T07:10:49.895Z,1012.86
2018-11-02T07:11:49.864Z,1012.88
2018-11-02T07:12:49.836Z,1012.94
2018-11-02T07:13:49.806Z,1012.85
2018-11-02T07:14:49.778Z,1012.96
2018-11-02T07:15:49.752Z,1012.95
2018-11-02T07:16:49.723Z,1012.99
2018-11-02T07:17:49.698Z,1012.93
2018-11-02T07:18:49.668Z,1012.99
2018-11-02T07:19:49.636Z,1012.90
2018-11-02T07:20:49.609Z,1013.05
2018-11-02T07:21:49.578Z,1013.06
2018-11-02T07:22:49.549Z,1012.87
2018-11-02T07:23:49.536Z,1013.07
2018-11-02T07:24:49.522Z,1013.10
2018-11-02T07:25:49.463Z,1013.00
2018-11-02T07:26:49.448Z,1013.08
2018-11-02T07:27:49.409Z,1013.03
2018-11-02T07:28:49.381Z,1013.04
2018-11-02T07:29:49.351Z,1013.11
2018-11-02T07:30:49.322Z,1013.16
2018-11-02T07:31:49.314Z,1013.07
2018-11-02T07:32:49.264Z,1013.08
2018-11-02T07:33:49.236Z,1013.12
2018-11-02T07:34:49.207Z,1013.18
2018-11-02T07:35:49.185Z,1013.13
2018-11-02T07:36:49.203Z,1013.26
2018-11-02T07:37:49.124Z,1013.03
2018-11-02T07:38:49.111Z,1013.21
2018-11-02T07:39:49.068Z,1013.31
2018-11-02T07:40:49.042Z,1013.14
2018-11-02T07:41:49.010Z,1013.19
2018-11-02T07:42:48.982Z,1013.11
2018-11-02T07:43:48.951Z,1013.13
2018-11-02T07:44:48.928Z,1013.21
2018-11-02T07:45:48.895Z,1013.27
2018-11-02T07:46:48.867Z,1013.38
2018-11-02T07:47:48.967Z,1013.44
2018-11-02T07:48:48.814Z,1013.46
2018-11-02T07:49:48.783Z,1013.55
2018-11-02T07:50:48.763Z,1013.43
2018-11-02T07:51:48.726Z,1013.30
2018-11-02T07:52:48.700Z,1013.10
2018-11-02T07:53:48.672Z,1013.21
2018-11-02T07:54:48.645Z,1013.25
2018-11-02T07:55:48.614Z,1013.18
2018-11-02T07:56:48.588Z,1013.29
2018-11-02T07:57:48.557Z,1013.40
2018-11-02T07:58:48.529Z,1013.39
2018-11-02T07:59:48.503Z,1013.37
2018-11-02T08:00:48.476Z,1012.94
2018-11-02T08:01:48.485Z,1013.05
2018-11-02T08:02:48.417Z,1013.31
2018-11-02T08:03:48.395Z,1013.33
2018-11-02T08:04:48.371Z,1013.40
2018-11-02T08:05:48.480Z,1013.42
2018-11-02T08:06:48.306Z,1013.35
2018-11-02T08:07:48.277Z,1013.39
2018-11-02T08:08:48.252Z,1013.28
2018-11-02T08:09:48.221Z,1013.25
2018-11-02T08:10:48.191Z,1013.72
2018-11-02T08:11:48.162Z,1013.52
2018-11-02T08:12:48.134Z,1013.60
2018-11-02T08:13:48.104Z,1013.70
2018-11-02T08:14:48.082Z,1013.68
2018-11-02T08:15:48.050Z,1013.45
2018-11-02T08:16:48.021Z,1013.57
2018-11-02T08:17:48.093Z,1013.60
2018-11-02T08:18:47.981Z,1013.43
2018-11-02T08:19:47.940Z,1013.48
2018-11-02T08:20:47.908Z,1013.55
2018-11-02T08:21:47.881Z,1013.58
2018-11-02T08:22:47.849Z,1013.67
2018-11-02T08:23:47.827Z,1013.49
2018-11-02T08:24:47.794Z,1013.47
2018-11-02T08:25:47.765Z,1013.51
2018-11-02T08:26:47.737Z,1013.57
2018-11-02T08:27:47.709Z,1013.96
2018-11-02T08:28:47.681Z,1013.92
2018-11-02T08:29:47.652Z,1013.71
2018-11-02T08:30:47.629Z,1013.43
2018-11-02T08:31:47.594Z,1013.46
2018-11-02T08:32:47.569Z,1013.72
2018-11-02T08:33:47.544Z,1013.88
2018-11-02T08:34:47.510Z,1013.53
2018-11-02T08:35:47.489Z,1013.60
2018-11-02T08:36:47.456Z,1013.97
2018-11-02T08:37:47.428Z,1013.72
2018-11-02T08:38:47.397Z,1013.91
2018-11-02T08:39:47.367Z,1014.14
2018-11-02T08:40:47.345Z,1013.79
2018-11-02T08:41:47.312Z,1014.02
2018-11-02T08:42:47.282Z,1014.03
2018-11-02T08:43:47.254Z,1013.99
2018-11-02T08:44:47.226Z,1013.77
2018-11-02T08:45:47.197Z,1013.95
2018-11-02T08:46:47.179Z,1014.01
2018-11-02T08:47:47.143Z,1013.92
2018-11-02T08:48:47.125Z,1013.97
2018-11-02T08:49:47.086Z,1014.19
2018-11-02T08:50:47.060Z,1014.09
2018-11-02T08:51:47.028Z,1014.06
2018-11-02T08:52:47.018Z,1014.28
2018-11-02T08:53:46.970Z,1014.36
2018-11-02T08:54:46.943Z,1014.38
2018-11-02T08:55:46.919Z,1014.37
2018-11-02T08:56:46.889Z,1014.36
2018-11-02T08:57:47.038Z,1014.41
2018-11-02T08:58:47.003Z,1014.37
2018-11-02T08:59:46.843Z,1014.37
2018-11-02T09:00:46.781Z,1014.40
2018-11-02T09:01:46.749Z,1014.29
2018-11-02T09:02:46.724Z,1014.34
2018-11-02T09:03:46.749Z,1014.47
2018-11-02T09:04:46.705Z,1014.27
2018-11-02T09:05:46.673Z,1014.46
2018-11-02T09:06:46.613Z,1014.47
2018-11-02T09:07:46.590Z,1014.08
2018-11-02T09:08:46.557Z,1014.31
2018-11-02T09:09:46.531Z,1014.34
2018-11-02T09:10:46.500Z,1014.51
2018-11-02T09:11:46.474Z,1014.07
2018-11-02T09:12:46.443Z,1014.64
2018-11-02T09:13:46.416Z,1014.83
2018-11-02T09:14:46.391Z,1014.83
2018-11-02T09:15:46.364Z,1014.87
2018-11-02T09:16:46.336Z,1014.83
2018-11-02T09:17:46.309Z,1014.76
2018-11-02T09:18:46.530Z,1014.83
2018-11-02T09:19:46.254Z,1014.73
2018-11-02T09:20:46.230Z,1014.81
2018-11-02T09:21:46.249Z,1014.93
2018-11-02T09:22:46.174Z,1015.04
2018-11-02T09:23:46.148Z,1014.99
2018-11-02T09:24:46.119Z,1014.99
2018-11-02T09:25:46.092Z,1014.97
2018-11-02T09:26:46.071Z,1015.11
2018-11-02T09:27:46.039Z,1015.01
2018-11-02T09:28:46.012Z,1014.66
2018-11-02T09:29:45.992Z,1015.01
2018-11-02T09:30:45.959Z,1014.95
2018-11-02T09:31:45.941Z,1015.07
2018-11-02T09:32:45.907Z,1015.06
2018-11-02T09:33:45.882Z,1015.06
2018-11-02T09:34:45.852Z,1015.12
2018-11-02T09:35:45.833Z,1015.20
2018-11-02T09:36:45.801Z,1015.17
2018-11-02T09:37:45.774Z,1015.24
2018-11-02T09:38:45.798Z,1015.28
2018-11-02T09:39:45.759Z,1015.33
2018-11-02T09:40:45.706Z,1015.35
2018-11-02T09:41:45.677Z,1015.46
2018-11-02T09:42:45.762Z,1015.49
2018-11-02T09:43:45.624Z,1015.46
2018-11-02T09:44:45.588Z,1015.49
2018-11-02T09:45:45.571Z,1015.56
2018-11-02T09:46:45.536Z,1015.85
2018-11-02T09:47:45.511Z,1015.65
2018-11-02T09:48:45.488Z,1016.04
2018-11-02T09:49:45.455Z,1015.70
2018-11-02T09:50:45.434Z,1015.80
2018-11-02T09:51:45.594Z,1015.83
2018-11-02T09:52:45.385Z,1015.55
2018-11-02T09:53:45.349Z,1015.80
2018-11-02T09:54:45.325Z,1015.68
2018-11-02T09:55:45.300Z,1015.71
2018-11-02T09:56:45.274Z,1015.75
2018-11-02T09:57:45.322Z,1015.68
2018-11-02T09:58:45.225Z,1015.80
2018-11-02T09:59:45.198Z,1015.89
2018-11-02T10:00:45.178Z,1015.69
2018-11-02T10:01:45.184Z,1015.81
2018-11-02T10:02:45.120Z,1015.73
2018-11-02T10:03:45.097Z,1015.78
2018-11-02T10:04:45.080Z,1015.93
2018-11-02T10:05:45.049Z,1015.86
2018-11-02T10:06:45.020Z,1016.01
2018-11-02T10:07:44.999Z,1016.02
2018-11-02T10:08:44.981Z,1016.13
2018-11-02T10:09:44.952Z,1016.14
2018-11-02T10:10:44.922Z,1016.39
2018-11-02T10:11:44.908Z,1016.16
2018-11-02T10:12:44.873Z,1016.02
2018-11-02T10:13:44.844Z,1016.31
2018-11-02T10:14:44.820Z,1016.13
2018-11-02T10:15:44.797Z,1016.29
2018-11-02T10:16:45.048Z,1016.19
2018-11-02T10:17:44.949Z,1016.25
2018-11-02T10:18:44.723Z,1016.30
2018-11-02T10:19:44.698Z,1016.29
2018-11-02T10:20:44.876Z,1016.31
2018-11-02T10:21:44.650Z,1016.40
2018-11-02T10:22:44.622Z,1016.67
2018-11-02T10:23:44.647Z,1016.69
2018-11-02T10:24:44.778Z,1016.33
2018-11-02T10:25:44.547Z,1016.38
2018-11-02T10:26:44.524Z,1016.23
2018-11-02T10:27:44.502Z,1016.73
2018-11-02T10:28:44.484Z,1016.72
2018-11-02T10:29:44.471Z,1016.78
2018-11-02T10:30:44.430Z,1016.65
2018-11-02T10:31:44.410Z,1016.78
2018-11-02T10:32:44.378Z,1016.59
2018-11-02T10:33:44.354Z,1016.81
2018-11-02T10:34:44.330Z,1016.90
2018-11-02T10:35:44.362Z,1016.53
2018-11-02T10:36:44.282Z,1016.73
2018-11-02T10:37:44.258Z,1016.80
2018-11-02T10:38:44.237Z,1016.45
2018-11-02T10:39:44.357Z,1016.88
2018-11-02T10:40:44.188Z,1016.76
2018-11-02T10:41:44.163Z,1016.77
2018-11-02T10:42:44.140Z,1016.83
2018-11-02T10:43:44.123Z,1016.83
2018-11-02T10:44:44.151Z,1016.68
2018-11-02T10:45:44.067Z,1016.43
2018-11-02T10:46:44.257Z,1016.81
2018-11-02T10:47:44.024Z,1016.73
2018-11-02T10:48:44.201Z,1016.64
2018-11-02T10:49:43.982Z,1016.70
2018-11-02T10:50:43.951Z,1016.78
2018-11-02T10:51:43.929Z,1016.64
2018-11-02T10:52:43.904Z,1016.70
2018-11-02T10:53:43.879Z,1016.92
2018-11-02T10:54:44.025Z,1016.74
2018-11-02T10:55:43.828Z,1017.02
2018-11-02T10:56:43.837Z,1017.30
2018-11-02T10:57:43.780Z,1017.07
2018-11-02T10:58:43.763Z,1017.27
2018-11-02T10:59:43.730Z,1016.86
2018-11-02T11:00:43.733Z,1016.93
2018-11-02T11:01:43.680Z,1016.98
2018-11-02T11:02:43.871Z,1017.47
2018-11-02T11:03:43.674Z,1017.14
2018-11-02T11:04:43.602Z,1017.13
2018-11-02T11:05:43.579Z,1017.19
2018-11-02T11:06:43.603Z,1017.25
2018-11-02T11:07:43.528Z,1017.54
2018-11-02T11:08:43.502Z,1017.42
2018-11-02T11:09:43.477Z,1017.25
2018-11-02T11:10:43.453Z,1017.26
2018-11-02T11:11:43.513Z,1017.95
2018-11-02T11:12:43.652Z,1018.01
2018-11-02T11:13:43.827Z,1017.93
2018-11-02T11:14:43.353Z,1018.03
2018-11-02T11:15:43.325Z,1018.11
2018-11-02T11:16:43.302Z,1017.85
2018-11-02T11:17:43.277Z,1017.84
2018-11-02T11:18:43.257Z,1018.19
2018-11-02T11:19:43.232Z,1018.25
2018-11-02T11:20:43.210Z,1017.47
2018-11-02T11:21:43.222Z,1017.42
2018-11-02T11:22:43.157Z,1017.79
2018-11-02T11:23:43.131Z,1017.36
2018-11-02T11:24:43.106Z,1017.80
2018-11-02T11:25:43.083Z,1018.14
2018-11-02T11:26:43.260Z,1018.26
2018-11-02T11:27:43.035Z,1018.33
2018-11-02T11:28:43.017Z,1018.21
2018-11-02T11:29:42.992Z,1018.24
2018-11-02T11:30:43.571Z,1018.17
2018-11-02T11:31:42.937Z,1018.27
2018-11-02T11:32:42.916Z,1018.30
2018-11-02T11:33:42.889Z,1018.22
2018-11-02T11:34:42.867Z,1018.01
2018-11-02T11:35:42.845Z,1017.73
2018-11-02T11:36:42.825Z,1018.45
2018-11-02T11:37:42.802Z,1018.27
2018-11-02T11:38:42.783Z,1018.39
2018-11-02T11:39:42.777Z,1017.51
2018-11-02T11:40:42.732Z,1018.37
2018-11-02T11:41:42.704Z,1018.56
2018-11-02T11:42:42.682Z,1018.72
2018-11-02T11:43:42.859Z,1018.51
2018-11-02T11:44:42.636Z,1018.24
2018-11-02T11:45:42.612Z,1017.93
2018-11-02T11:46:42.588Z,1017.83
2018-11-02T11:47:42.567Z,1018.38
2018-11-02T11:48:42.619Z,1017.78
2018-11-02T11:49:42.523Z,1017.67
2018-11-02T11:50:42.498Z,1017.65
2018-11-02T11:51:42.486Z,1017.81
2018-11-02T11:52:42.652Z,1017.67
2018-11-02T11:53:42.426Z,1017.95
2018-11-02T11:54:42.472Z,1017.97
2018-11-02T11:55:42.380Z,1018.00
2018-11-02T11:56:42.354Z,1017.92
2018-11-02T11:57:42.329Z,1018.09
2018-11-02T11:58:42.334Z,1018.24
2018-11-02T11:59:42.284Z,1018.36
2018-11-02T12:00:42.262Z,1018.46
2018-11-02T12:01:42.234Z,1018.02
2018-11-02T12:02:42.209Z,1018.76
2018-11-02T12:03:42.192Z,1018.17
2018-11-02T12:04:42.185Z,1018.88